Boyes, Montana
Current Conditions -  °F | °C
As of 6:53 AM on Thursday 27 Nov 2014 (Local Time) from KGCC Reporting Station
Broken Clouds Broken Clouds  
Wind Chill: 31°   Ceiling: 11000
Heat Index: 40°   Visibility: 10mi
Dew Point: 29°   Wind: 18mph
Humidity: 65%   Direction: 230°SW
Pressure: 30.01"   Gusts: NA
Location:  45.27°N, 105.03°W
Report Text: KGCC 271353Z AUTO 23016KT 10SM BKN110 04/M02 A3001 RMK AO2 SLP182 T00441017 TSNO
Loading
Personal Weather Stations






























Interactive Weather Map New forecast layout! Learn more

10-Day Weather Forecast

Advertisements
Track Severe Weather on mobile